Time;durP1;ratioP1;P1;durP2;ratioP2;P2;SDS_P1;SDS_P2;PMS_P1;PMS_P2;Temp;Humidity;BMP_temperature;BMP_pressure;BME280_temperature;BME280_humidity;BME280_pressure;Samples;Min_cycle;Max_cycle;Signal;HPM_P1;HPM_P2
2022/11/01 00:02:02;;;;;;;;;;;;;;;20.06;49.22;95860.84;6122329;19;1635;-72
2022/11/01 00:04:06;;;;;;;;;;;;;;;20.06;49.16;95855.50;6122308;19;1738;-71
2022/11/01 00:06:09;;;;;;;;;;;;;;;20.05;49.18;95869.88;6120143;19;1428;-71
2022/11/01 00:08:12;;;;;;;;;;;;;;;20.05;49.17;95864.53;6099256;19;1544;-72
2022/11/01 00:10:16;;;;;;;;;;;;;;;20.06;48.74;95863.50;6123016;19;1670;-71
2022/11/01 00:12:19;;;;;;;;;;;;;;;20.05;48.90;95861.88;6121333;19;1752;-71
2022/11/01 00:14:22;;;;;;;;;;;;;;;20.06;48.83;95866.19;6121134;19;1752;-72
2022/11/01 00:16:26;;;;;;;;;;;;;;;20.06;49.07;95856.38;6120648;19;1646;-72
2022/11/01 00:18:32;;;;;;;;;;;;;;;20.05;49.29;95870.69;6095511;19;1855;-73
2022/11/01 00:20:35;;;;;;;;;;;;;;;20.07;49.47;95865.19;6118809;19;1426;-72
2022/11/01 00:22:38;;;;;;;;;;;;;;;20.08;49.43;95866.84;6120375;19;1745;-72
2022/11/01 00:24:42;;;;;;;;;;;;;;;20.07;49.70;95867.84;6121244;19;1743;-72
2022/11/01 00:26:45;;;;;;;;;;;;;;;20.07;49.43;95867.84;6122800;19;1758;-73
2022/11/01 00:28:48;;;;;;;;;;;;;;;20.07;49.40;95867.84;6120798;19;1633;-73
2022/11/01 00:30:53;;;;;;;;;;;;;;;20.07;49.73;95865.19;6095870;19;1645;-72
2022/11/01 00:32:58;;;;;;;;;;;;;;;20.06;49.28;95855.50;6118177;19;1420;-72
2022/11/01 00:35:04;;;;;;;;;;;;;;;20.06;49.70;95864.38;6119213;19;1644;-72
2022/11/01 00:37:07;;;;;;;;;;;;;;;20.07;49.62;95867.84;6120738;19;1755;-72
2022/11/01 00:39:14;;;;;;;;;;;;;;;20.07;49.38;95866.00;6118847;19;1854;-73
2022/11/01 00:41:19;;;;;;;;;;;;;;;20.07;49.48;95865.19;6095501;19;1802;-73
2022/11/01 00:43:22;;;;;;;;;;;;;;;20.07;49.36;95870.53;6120961;19;1654;-73
2022/11/01 00:45:26;;;;;;;;;;;;;;;20.07;49.40;95867.84;6119573;19;1425;-72
2022/11/01 00:47:29;;;;;;;;;;;;;;;20.07;49.58;95867.84;6118881;19;1640;-73
2022/11/01 00:49:33;;;;;;;;;;;;;;;20.06;49.65;95863.50;6122224;19;1737;-73
2022/11/01 00:51:39;;;;;;;;;;;;;;;20.06;49.17;95860.84;6116796;19;1744;-72
2022/11/01 00:53:43;;;;;;;;;;;;;;;20.07;49.40;95865.19;6102885;19;1647;-73
2022/11/01 00:55:46;;;;;;;;;;;;;;;20.06;49.28;95871.53;6119417;19;1717;-73
2022/11/01 00:57:49;;;;;;;;;;;;;;;20.06;49.32;95867.03;6121519;19;1814;-72
2022/11/01 00:59:53;;;;;;;;;;;;;;;20.07;49.35;95870.53;6119022;19;1857;-72
2022/11/01 01:01:56;;;;;;;;;;;;;;;20.07;49.46;95873.19;6120709;19;1722;-72
2022/11/01 01:04:00;;;;;;;;;;;;;;;20.05;49.23;95870.69;6094648;19;1667;-73
2022/11/01 01:06:03;;;;;;;;;;;;;;;20.06;49.28;95872.38;6117722;19;1665;-72
2022/11/01 01:08:09;;;;;;;;;;;;;;;20.06;49.34;95868.84;6119406;19;1652;-73
2022/11/01 01:10:13;;;;;;;;;;;;;;;20.05;49.07;95867.22;6119430;19;1763;-72
2022/11/01 01:12:16;;;;;;;;;;;;;;;20.05;49.45;95870.69;6121212;19;1746;-72
2022/11/01 01:14:19;;;;;;;;;;;;;;;20.06;49.18;95868.84;6116819;19;1524;-72
2022/11/01 01:16:23;;;;;;;;;;;;;;;20.05;49.35;95869.88;6099526;19;1653;-72
2022/11/01 01:18:26;;;;;;;;;;;;;;;20.04;49.04;95862.91;6118954;19;1643;-72
2022/11/01 01:20:29;;;;;;;;;;;;;;;20.05;49.25;95859.22;6119416;19;1632;-72
2022/11/01 01:22:33;;;;;;;;;;;;;;;20.04;49.27;95866.38;6115864;19;1513;-72
2022/11/01 01:24:44;;;;;;;;;;;;;;;20.05;49.08;95861.88;6118633;19;1618;-72
2022/11/01 01:26:47;;;;;;;;;;;;;;;20.04;48.90;95862.91;6092153;19;1487;-72
2022/11/01 01:28:54;;;;;;;;;;;;;;;20.04;49.15;95860.22;6120227;19;1404;-73
2022/11/01 01:30:57;;;;;;;;;;;;;;;20.04;49.09;95863.72;6119144;19;1647;-72
2022/11/01 01:33:00;;;;;;;;;;;;;;;20.03;48.96;95862.06;6120773;19;1752;-72
2022/11/01 01:35:04;;;;;;;;;;;;;;;20.02;49.07;95868.41;6119513;19;1429;-72
2022/11/01 01:37:08;;;;;;;;;;;;;;;20.03;49.32;95862.06;6111661;19;1698;-72
2022/11/01 01:39:11;;;;;;;;;;;;;;;20.02;48.97;95860.41;6110349;19;1852;-72
2022/11/01 01:43:42;;;;;;;;;;;;;;;20.05;49.16;95861.88;6126283;19;1781;-72
2022/11/01 01:45:45;;;;;;;;;;;;;;;20.04;48.79;95862.91;6125698;19;1751;-72
2022/11/01 01:47:48;;;;;;;;;;;;;;;20.05;48.95;95867.22;6124642;19;1712;-73
2022/11/01 01:49:53;;;;;;;;;;;;;;;20.04;49.16;95861.06;6097338;19;1570;-73
2022/11/01 01:51:57;;;;;;;;;;;;;;;20.05;49.22;95869.88;6125626;19;1728;-72
2022/11/01 01:54:00;;;;;;;;;;;;;;;20.04;48.91;95874.41;6126696;19;1732;-72
2022/11/01 01:56:05;;;;;;;;;;;;;;;20.04;49.02;95866.38;6125118;19;1745;-72
2022/11/01 01:58:12;;;;;;;;;;;;;;;20.04;48.78;95866.38;6125022;19;1780;-72
2022/11/01 02:00:16;;;;;;;;;;;;;;;20.05;49.17;95873.38;6110135;19;1854;-72
2022/11/01 02:02:19;;;;;;;;;;;;;;;20.05;48.93;95869.88;6111967;19;1639;-73
2022/11/01 02:04:25;;;;;;;;;;;;;;;20.05;48.86;95869.88;6125775;19;1746;-72
2022/11/01 02:06:29;;;;;;;;;;;;;;;20.05;49.05;95869.88;6122061;19;1656;-72
2022/11/01 02:08:33;;;;;;;;;;;;;;;20.04;48.79;95870.91;6123421;19;1750;-72
2022/11/01 02:10:36;;;;;;;;;;;;;;;20.05;48.99;95875.22;6123158;19;1655;-73
2022/11/01 02:12:40;;;;;;;;;;;;;;;20.04;48.78;95879.72;6095571;19;1694;-72
2022/11/01 02:14:46;;;;;;;;;;;;;;;20.03;48.59;95877.22;6122643;19;1715;-72
2022/11/01 02:16:54;;;;;;;;;;;;;;;20.02;49.06;95876.41;6125635;19;1634;-72
2022/11/01 02:19:05;;;;;;;;;;;;;;;20.02;48.94;95873.75;6123934;19;1853;-73
2022/11/01 02:21:23;;;;;;;;;;;;;;;20.02;48.94;95875.59;6122819;19;1652;-73
2022/11/01 02:23:52;;;;;;;;;;;;;;;20.03;48.86;95877.22;6098977;19;1718;-72
2022/11/01 02:26:03;;;;;;;;;;;;;;;20.02;48.96;95881.75;6122478;19;1640;-72
2022/11/01 02:28:19;;;;;;;;;;;;;;;20.03;49.03;95882.56;6122442;19;1875;-73
2022/11/01 02:30:23;;;;;;;;;;;;;;;20.01;48.75;95880.09;6122414;19;1724;-73
2022/11/01 02:32:30;;;;;;;;;;;;;;;20.02;49.03;95881.75;6126272;19;1747;-73
2022/11/01 02:34:36;;;;;;;;;;;;;;;20.01;48.77;95885.44;6102119;19;1697;-73
2022/11/01 02:36:43;;;;;;;;;;;;;;;20.02;48.76;95886.25;6123846;19;1651;-75
2022/11/01 02:38:48;;;;;;;;;;;;;;;20.02;48.62;95887.09;6126088;19;1771;-74
2022/11/01 02:40:56;;;;;;;;;;;;;;;20.02;48.84;95891.59;6123421;19;1870;-74
2022/11/01 02:43:03;;;;;;;;;;;;;;;20.01;48.80;95887.28;6124960;19;1654;-74
2022/11/01 02:45:10;;;;;;;;;;;;;;;20.02;48.40;95896.94;6123121;19;1651;-75
2022/11/01 02:47:12;;;;;;;;;;;;;;;20.01;48.65;95892.63;6104239;19;1659;-72
2022/11/01 02:49:20;;;;;;;;;;;;;;;20.01;48.67;95892.63;6122005;19;1448;-74
2022/11/01 02:51:25;;;;;;;;;;;;;;;20.01;48.90;95895.28;6124653;19;1740;-73
2022/11/01 02:53:29;;;;;;;;;;;;;;;20.00;48.70;95902.44;6125495;19;1715;-73
2022/11/01 02:55:34;;;;;;;;;;;;;;;20.01;48.56;95900.63;6124034;19;1636;-74
2022/11/01 02:57:41;;;;;;;;;;;;;;;20.01;48.67;95903.28;6097035;19;1791;-74
2022/11/01 02:59:45;;;;;;;;;;;;;;;20.01;49.11;95908.63;6124403;19;1853;-75
2022/11/01 03:01:52;;;;;;;;;;;;;;;20.04;48.76;95905.59;6124448;19;1668;-73
2022/11/01 03:03:57;;;;;;;;;;;;;;;20.05;48.84;95907.22;6123791;19;1742;-75
2022/11/01 03:06:08;;;;;;;;;;;;;;;20.07;48.90;95905.22;6123351;19;1518;-73
2022/11/01 03:08:13;;;;;;;;;;;;;;;20.05;49.02;95908.03;6109368;19;1798;-74
2022/11/01 03:10:16;;;;;;;;;;;;;;;20.06;49.64;95908.88;6118537;19;1659;-73
2022/11/01 03:12:24;;;;;;;;;;;;;;;20.05;49.63;95912.56;6125031;19;1636;-75
2022/11/01 03:14:33;;;;;;;;;;;;;;;20.04;49.41;95919.75;6127584;19;1765;-74
2022/11/01 03:16:38;;;;;;;;;;;;;;;20.04;49.60;95917.06;6131069;19;1567;-72
2022/11/01 03:18:47;;;;;;;;;;;;;;;20.04;49.20;95910.91;6126231;19;1720;-74
2022/11/01 03:20:55;;;;;;;;;;;;;;;20.04;49.42;95913.59;6096879;19;1841;-74
2022/11/01 03:23:04;;;;;;;;;;;;;;;20.03;49.25;95920.78;6126027;19;1566;-73
2022/11/01 03:25:38;;;;;;;;;;;;;;;20.04;49.24;95921.59;6121530;19;1697;-73
2022/11/01 03:27:35;;;;;;;;;;;;;;;20.03;49.54;95920.78;6124032;19;1608;-72
2022/11/01 03:29:40;;;;;;;;;;;;;;;20.03;49.53;95911.91;6121141;19;1449;-72
2022/11/01 03:31:44;;;;;;;;;;;;;;;20.03;49.31;95918.09;6096491;19;1767;-73
2022/11/01 03:33:49;;;;;;;;;;;;;;;20.02;49.24;95912.94;6123225;19;1493;-73
2022/11/01 03:35:54;;;;;;;;;;;;;;;20.02;49.48;95915.59;6120105;19;1053;-73
2022/11/01 03:38:00;;;;;;;;;;;;;;;20.03;49.52;95911.91;6122421;19;1641;-71
2022/11/01 03:40:08;;;;;;;;;;;;;;;20.02;49.27;95913.75;6122638;19;1853;-73
2022/11/01 03:42:13;;;;;;;;;;;;;;;20.02;49.51;95911.09;6107558;19;1641;-73
2022/11/01 03:44:18;;;;;;;;;;;;;;;20.02;49.50;95912.94;6109438;19;1697;-73
2022/11/01 03:46:21;;;;;;;;;;;;;;;20.02;49.15;95904.94;6125061;19;1748;-73
2022/11/01 03:48:25;;;;;;;;;;;;;;;20.02;49.27;95916.44;6121327;19;1630;-72
2022/11/01 03:50:29;;;;;;;;;;;;;;;20.02;49.21;95912.94;6122068;19;1613;-73
2022/11/01 03:52:32;;;;;;;;;;;;;;;20.02;49.36;95903.09;6120400;19;1661;-72
2022/11/01 03:54:36;;;;;;;;;;;;;;;20.02;49.01;95907.59;6091884;19;1754;-73
2022/11/01 03:56:42;;;;;;;;;;;;;;;20.03;49.10;95906.56;6120085;19;1817;-74
2022/11/01 03:58:45;;;;;;;;;;;;;;;20.01;49.40;95905.97;6117605;19;1703;-73
2022/11/01 04:00:49;;;;;;;;;;;;;;;20.02;49.30;95904.94;6118438;19;1852;-74
2022/11/01 04:02:53;;;;;;;;;;;;;;;20.03;49.13;95909.25;6120975;19;1765;-73
2022/11/01 04:04:56;;;;;;;;;;;;;;;20.02;48.99;95902.25;6108071;19;1563;-72
2022/11/01 04:07:00;;;;;;;;;;;;;;;20.02;49.32;95911.09;6110332;19;1792;-71
2022/11/01 04:09:03;;;;;;;;;;;;;;;20.03;49.17;95917.25;6122767;19;1734;-73
2022/11/01 04:11:07;;;;;;;;;;;;;;;20.02;49.33;95918.28;6122162;19;1421;-74
2022/11/01 04:13:13;;;;;;;;;;;;;;;19.94;49.62;95923.72;6119180;19;1419;-75
2022/11/01 04:22:04;;;;;;;;;;;;;;;20.05;49.17;95915.22;6122740;19;1707;-78
2022/11/01 04:24:08;;;;;;;;;;;;;;;19.61;45.95;95910.75;6124101;19;1656;-75
2022/11/01 04:26:13;;;;;;;;;;;;;;;18.95;43.53;95916.69;6129662;19;1571;-76
2022/11/01 04:28:19;;;;;;;;;;;;;;;18.73;42.97;95912.22;6103346;19;1820;-76
2022/11/01 04:30:22;;;;;;;;;;;;;;;18.83;42.71;95911.97;6120841;19;1608;-78
2022/11/01 04:32:26;;;;;;;;;;;;;;;18.49;41.55;95905.19;6127204;19;1734;-77
2022/11/01 04:36:44;;;;;;;;;;;;;;;18.17;41.02;95909.69;6125482;19;1717;-75
2022/11/01 04:38:52;;;;;;;;;;;;;;;18.13;40.67;95903.09;6113966;19;1825;-73
2022/11/01 04:40:55;;;;;;;;;;;;;;;18.05;40.73;95919.91;6112677;19;1853;-75
2022/11/01 04:43:00;;;;;;;;;;;;;;;17.96;40.49;95920.94;6124742;19;1690;-75
2022/11/01 04:45:06;;;;;;;;;;;;;;;17.93;40.54;95917.81;6122237;19;1788;-76
2022/11/01 04:47:10;;;;;;;;;;;;;;;17.90;40.33;95920.78;6121439;19;966;-75
2022/11/01 04:49:13;;;;;;;;;;;;;;;17.84;40.71;95923.16;6126797;19;1711;-71
2022/11/01 04:51:17;;;;;;;;;;;;;;;17.77;40.31;95913.38;6101569;19;1632;-75
2022/11/01 04:53:20;;;;;;;;;;;;;;;17.75;40.32;95918.03;6122615;19;1417;-73
2022/11/01 04:55:23;;;;;;;;;;;;;;;18.14;40.97;95918.03;6120264;19;1752;-74
2022/11/01 04:57:26;;;;;;;;;;;;;;;18.48;41.39;95920.31;6120696;19;1729;-74
2022/11/01 04:59:30;;;;;;;;;;;;;;;18.77;41.42;95918.81;6120724;19;1662;-77
2022/11/01 05:01:36;;;;;;;;;;;;;;;18.99;41.79;95925.16;6109020;19;1881;-73
2022/11/01 05:03:39;;;;;;;;;;;;;;;19.12;41.86;95927.19;6116066;19;1718;-76
2022/11/01 05:05:42;;;;;;;;;;;;;;;19.22;42.01;95922.44;6120498;19;1640;-75
2022/11/01 05:07:46;;;;;;;;;;;;;;;19.29;42.04;95919.88;6121979;19;1764;-74
2022/11/01 05:09:49;;;;;;;;;;;;;;;19.03;41.21;95929.09;6121670;19;1756;-78
2022/11/01 05:11:52;;;;;;;;;;;;;;;18.35;40.33;95925.38;6116325;19;1737;-77
2022/11/01 05:13:56;;;;;;;;;;;;;;;18.04;40.44;95936.88;6096309;19;1839;-78
2022/11/01 05:15:59;;;;;;;;;;;;;;;17.85;40.10;95935.44;6119200;19;1728;-77
2022/11/01 05:18:05;;;;;;;;;;;;;;;17.76;40.34;95936.47;6119562;19;1429;-77
2022/11/01 05:20:09;;;;;;;;;;;;;;;17.72;40.03;95939.59;6118794;19;1849;-77
2022/11/01 05:22:13;;;;;;;;;;;;;;;17.62;40.03;95945.13;6120793;19;1548;-77
2022/11/01 05:24:16;;;;;;;;;;;;;;;17.53;40.17;95941.66;6106022;19;1743;-71
2022/11/01 05:26:20;;;;;;;;;;;;;;;17.56;40.01;95953.78;6108648;19;1729;-76
2022/11/01 05:28:23;;;;;;;;;;;;;;;17.51;39.96;95959.59;6119285;19;1419;-78
2022/11/01 05:30:26;;;;;;;;;;;;;;;17.52;40.40;95953.25;6120259;19;1438;-78
2022/11/01 05:32:30;;;;;;;;;;;;;;;17.52;40.27;95961.25;6120577;19;1644;-76
2022/11/01 05:34:36;;;;;;;;;;;;;;;17.45;40.13;95957.63;6115368;19;2040;-71
2022/11/01 05:36:39;;;;;;;;;;;;;;;17.43;40.22;95956.94;6091555;19;1754;-73
2022/11/01 05:38:43;;;;;;;;;;;;;;;17.43;40.47;95957.78;6120217;19;1521;-76
2022/11/01 05:40:46;;;;;;;;;;;;;;;17.37;40.28;95957.63;6118596;19;1858;-76
2022/11/01 05:42:49;;;;;;;;;;;;;;;17.33;40.31;95961.63;6116139;19;1397;-78
2022/11/01 05:44:52;;;;;;;;;;;;;;;17.32;40.20;95973.22;6118893;19;1623;-76
2022/11/01 05:46:56;;;;;;;;;;;;;;;17.53;40.18;95968.22;6106973;19;1623;-73
2022/11/01 05:48:59;;;;;;;;;;;;;;;17.88;40.14;95961.69;6105552;19;1073;-73
2022/11/01 05:51:05;;;;;;;;;;;;;;;18.04;40.00;95970.59;6117432;19;1046;-73
2022/11/01 05:53:10;;;;;;;;;;;;;;;18.37;40.66;95973.13;6118159;19;963;-75
2022/11/01 05:55:13;;;;;;;;;;;;;;;18.63;40.62;95976.28;6117743;19;1798;-72
2022/11/01 05:57:17;;;;;;;;;;;;;;;18.62;40.64;95977.31;6117076;19;1007;-73
2022/11/01 05:59:20;;;;;;;;;;;;;;;18.53;40.97;95976.53;6092193;19;1462;-73
2022/11/01 06:01:23;;;;;;;;;;;;;;;18.49;40.78;95974.38;6116425;19;1849;-73
2022/11/01 06:03:27;;;;;;;;;;;;;;;18.49;40.62;95985.00;6116820;19;1125;-73
2022/11/01 06:05:31;;;;;;;;;;;;;;;18.51;40.99;95977.69;6117654;19;1034;-72
2022/11/01 06:07:39;;;;;;;;;;;;;;;18.26;41.25;95980.47;6117429;19;1049;-72
2022/11/01 06:09:42;;;;;;;;;;;;;;;18.07;41.53;95989.72;6102137;19;1491;-69
2022/11/01 06:11:45;;;;;;;;;;;;;;;18.01;41.65;95987.75;6109126;19;1144;-73
2022/11/01 06:13:49;;;;;;;;;;;;;;;17.95;42.09;95982.25;6117194;19;1036;-73
2022/11/01 06:15:52;;;;;;;;;;;;;;;17.92;42.09;95983.44;6116617;19;1053;-73
2022/11/01 06:17:59;;;;;;;;;;;;;;;17.92;41.67;95983.44;6117148;19;1026;-73
2022/11/01 06:20:02;;;;;;;;;;;;;;;17.85;41.91;95983.28;6116814;19;970;-72
2022/11/01 06:22:05;;;;;;;;;;;;;;;17.84;41.96;95983.44;6090122;19;1860;-71
2022/11/01 06:24:12;;;;;;;;;;;;;;;17.83;42.20;95992.44;6120415;19;1510;-72
2022/11/01 06:26:15;;;;;;;;;;;;;;;17.92;41.83;95990.59;6120012;19;1492;-73
2022/11/01 06:28:19;;;;;;;;;;;;;;;17.99;41.67;95991.56;6122190;19;1061;-72
2022/11/01 06:30:22;;;;;;;;;;;;;;;17.94;41.86;95986.75;6120431;19;1140;-71
2022/11/01 06:32:26;;;;;;;;;;;;;;;18.15;42.00;95993.31;6107453;19;1290;-72
2022/11/01 06:34:29;;;;;;;;;;;;;;;18.22;41.77;95992.47;6113551;19;1345;-71
2022/11/01 06:36:32;;;;;;;;;;;;;;;18.28;41.96;95997.09;6121716;19;966;-73
2022/11/01 06:38:36;;;;;;;;;;;;;;;18.33;41.92;95993.94;6122214;19;1268;-72
2022/11/01 06:40:42;;;;;;;;;;;;;;;18.34;41.72;95990.25;6124453;19;1849;-73
2022/11/01 06:42:45;;;;;;;;;;;;;;;18.26;42.15;96001.75;6122097;19;1796;-72
2022/11/01 06:44:48;;;;;;;;;;;;;;;18.30;41.93;96000.41;6098097;19;1571;-72
2022/11/01 06:46:52;;;;;;;;;;;;;;;18.35;42.06;95991.06;6121349;19;1132;-72
2022/11/01 06:48:55;;;;;;;;;;;;;;;18.42;41.62;96000.88;6120922;19;1025;-72
2022/11/01 06:50:58;;;;;;;;;;;;;;;18.49;41.88;95987.69;6121639;19;1116;-72
2022/11/01 06:53:02;;;;;;;;;;;;;;;18.49;41.60;95996.47;6121819;19;1037;-73
2022/11/01 06:55:06;;;;;;;;;;;;;;;18.48;42.10;95989.50;6107760;19;1135;-72
2022/11/01 06:57:12;;;;;;;;;;;;;;;18.49;42.03;95991.16;6109304;19;1470;-72
2022/11/01 06:59:15;;;;;;;;;;;;;;;18.51;41.94;95986.50;6121475;19;1021;-74
2022/11/01 07:01:20;;;;;;;;;;;;;;;18.54;41.89;95988.81;6120457;19;1845;-71
2022/11/01 07:03:24;;;;;;;;;;;;;;;18.52;41.68;95998.81;6121052;19;1037;-72
2022/11/01 07:05:27;;;;;;;;;;;;;;;18.53;42.12;95995.16;6121683;19;990;-74
2022/11/01 07:07:30;;;;;;;;;;;;;;;18.58;42.17;95991.13;6094819;19;1345;-74
2022/11/01 07:09:36;;;;;;;;;;;;;;;18.63;42.07;95991.44;6121173;19;1056;-74
2022/11/01 07:11:39;;;;;;;;;;;;;;;18.64;42.05;95987.78;6118787;19;1655;-74
2022/11/01 07:13:45;;;;;;;;;;;;;;;18.64;41.93;95987.78;6121298;19;1005;-74
2022/11/01 07:15:48;;;;;;;;;;;;;;;18.68;41.71;95994.44;6121131;19;1083;-73
2022/11/01 07:17:52;;;;;;;;;;;;;;;18.72;41.86;95990.41;6102750;19;1391;-71
2022/11/01 07:19:55;;;;;;;;;;;;;;;18.71;42.04;95988.75;6115985;19;1272;-74
2022/11/01 07:21:58;;;;;;;;;;;;;;;18.65;42.25;95987.63;6119283;19;1845;-74
2022/11/01 07:24:02;;;;;;;;;;;;;;;18.72;42.09;95995.72;6119077;19;1571;-72
2022/11/01 07:26:05;;;;;;;;;;;;;;;18.62;42.25;95990.59;6117691;19;1565;-72
2022/11/01 07:28:09;;;;;;;;;;;;;;;18.48;42.25;95989.50;6120099;19;955;-73
2022/11/01 07:30:15;;;;;;;;;;;;;;;18.57;42.11;95986.81;6092663;19;1642;-74
2022/11/01 07:32:18;;;;;;;;;;;;;;;18.66;42.06;95985.78;6119897;19;1136;-73
2022/11/01 07:34:22;;;;;;;;;;;;;;;18.68;42.04;95991.78;6118872;19;1022;-74
2022/11/01 07:36:25;;;;;;;;;;;;;;;18.72;41.90;95991.25;6120216;19;1025;-73
2022/11/01 07:38:28;;;;;;;;;;;;;;;18.74;41.89;95988.41;6120387;19;1062;-75
2022/11/01 07:40:32;;;;;;;;;;;;;;;18.76;41.78;95986.41;6107301;19;1232;-75
2022/11/01 07:42:35;;;;;;;;;;;;;;;18.80;41.92;95993.00;6109331;19;1881;-73
2022/11/01 07:44:44;;;;;;;;;;;;;;;18.83;42.13;95994.50;6120549;19;1323;-74
2022/11/01 07:46:50;;;;;;;;;;;;;;;18.85;42.08;95992.50;6119165;19;1101;-73
2022/11/01 07:48:53;;;;;;;;;;;;;;;18.79;42.04;95991.38;6120289;19;1029;-72
2022/11/01 07:50:57;;;;;;;;;;;;;;;18.79;42.20;95994.03;6121016;19;1025;-74
2022/11/01 07:53:01;;;;;;;;;;;;;;;18.83;42.26;95992.66;6092252;19;1504;-74
2022/11/01 07:55:04;;;;;;;;;;;;;;;18.85;41.98;95988.00;6119425;19;954;-73
2022/11/01 07:57:08;;;;;;;;;;;;;;;18.83;42.17;95987.34;6119929;19;1140;-75
2022/11/01 07:59:11;;;;;;;;;;;;;;;18.87;41.72;95982.50;6120928;19;1054;-74
2022/11/01 08:01:14;;;;;;;;;;;;;;;18.88;41.81;95986.81;6124454;19;1857;-74
2022/11/01 08:03:21;;;;;;;;;;;;;;;18.90;42.23;95988.31;6093634;19;1418;-73
2022/11/01 08:05:24;;;;;;;;;;;;;;;18.92;41.96;95978.31;6119695;19;1311;-73
2022/11/01 08:07:27;;;;;;;;;;;;;;;18.93;42.30;95982.63;6120769;19;1065;-74
2022/11/01 08:09:30;;;;;;;;;;;;;;;18.94;42.37;95984.25;6119201;19;1010;-72
2022/11/01 08:11:34;;;;;;;;;;;;;;;18.94;42.15;95983.44;6122156;19;1178;-73
2022/11/01 08:13:37;;;;;;;;;;;;;;;18.91;42.07;95970.47;6119366;19;1288;-73
2022/11/01 08:15:40;;;;;;;;;;;;;;;18.92;42.46;95975.66;6092850;19;1617;-73
2022/11/01 08:17:44;;;;;;;;;;;;;;;18.94;42.32;95981.59;6116652;19;1483;-75
2022/11/01 08:19:50;;;;;;;;;;;;;;;18.94;41.87;95973.59;6119476;19;1024;-73
2022/11/01 08:21:53;;;;;;;;;;;;;;;18.95;41.92;95969.97;6118945;19;1850;-72
2022/11/01 08:23:56;;;;;;;;;;;;;;;18.95;42.12;95972.63;6118651;19;1028;-73
2022/11/01 08:26:01;;;;;;;;;;;;;;;18.95;42.28;95967.28;6094238;19;1434;-75
2022/11/01 08:28:05;;;;;;;;;;;;;;;18.99;42.16;95967.75;6122807;19;1156;-75
2022/11/01 08:30:09;;;;;;;;;;;;;;;19.02;42.63;95969.25;6122382;19;1129;-74
2022/11/01 08:32:13;;;;;;;;;;;;;;;19.02;42.35;95967.41;6119832;19;1801;-73
2022/11/01 08:34:16;;;;;;;;;;;;;;;18.99;42.48;95970.44;6119254;19;1049;-73
2022/11/01 08:36:22;;;;;;;;;;;;;;;18.98;41.94;95963.44;6118683;19;1289;-73
2022/11/01 08:38:26;;;;;;;;;;;;;;;18.99;42.26;95960.59;6092794;19;1405;-72
2022/11/01 08:40:29;;;;;;;;;;;;;;;18.94;42.09;95956.81;6117741;19;1108;-72
2022/11/01 08:42:33;;;;;;;;;;;;;;;18.84;42.16;95956.22;6116549;19;1864;-72
2022/11/01 08:44:36;;;;;;;;;;;;;;;18.90;42.06;95953.69;6118586;19;1057;-72
2022/11/01 08:46:41;;;;;;;;;;;;;;;18.94;41.93;95954.97;6116287;19;1669;-73
2022/11/01 08:48:45;;;;;;;;;;;;;;;19.02;42.28;95953.25;6092701;19;1522;-73
2022/11/01 08:50:49;;;;;;;;;;;;;;;19.07;42.19;95956.22;6117959;19;1030;-74
2022/11/01 08:52:55;;;;;;;;;;;;;;;19.10;42.34;95956.69;6118269;19;1810;-72
2022/11/01 08:54:58;;;;;;;;;;;;;;;18.88;42.29;95950.34;6118102;19;965;-72
2022/11/01 08:57:01;;;;;;;;;;;;;;;18.59;41.94;95951.03;6118166;19;938;-72
2022/11/01 08:59:05;;;;;;;;;;;;;;;18.44;42.23;95948.31;6118297;19;1013;-72
2022/11/01 09:01:08;;;;;;;;;;;;;;;18.44;41.93;95950.09;6090829;19;1592;-71
2022/11/01 09:03:12;;;;;;;;;;;;;;;18.58;42.24;95943.22;6116704;19;1853;-73
2022/11/01 09:05:15;;;;;;;;;;;;;;;18.83;42.18;95943.91;6118123;19;1013;-74
2022/11/01 09:07:18;;;;;;;;;;;;;;;18.92;42.51;95946.34;6117803;19;1018;-72
2022/11/01 09:09:24;;;;;;;;;;;;;;;18.98;42.21;95945.63;6116357;19;1030;-73
2022/11/01 09:11:28;;;;;;;;;;;;;;;19.01;42.11;95936.47;6092530;19;1528;-75
2022/11/01 09:13:31;;;;;;;;;;;;;;;19.05;42.39;95944.91;6117161;19;1053;-75
2022/11/01 09:15:34;;;;;;;;;;;;;;;19.08;42.07;95941.88;6116387;19;1499;-73
2022/11/01 09:17:38;;;;;;;;;;;;;;;19.10;42.16;95932.72;6118018;19;964;-71
2022/11/01 09:19:41;;;;;;;;;;;;;;;19.12;42.34;95935.19;6117391;19;1120;-72
2022/11/01 09:21:44;;;;;;;;;;;;;;;19.12;42.54;95930.69;6117707;19;1821;-71
2022/11/01 09:23:48;;;;;;;;;;;;;;;19.14;42.61;95925.19;6091270;19;1612;-73
2022/11/01 09:25:53;;;;;;;;;;;;;;;19.15;42.31;95933.00;6116518;19;1361;-74
2022/11/01 09:27:57;;;;;;;;;;;;;;;19.15;42.60;95922.34;6117693;19;973;-73
2022/11/01 09:30:01;;;;;;;;;;;;;;;19.16;42.21;95923.16;6116112;19;1100;-72
2022/11/01 09:32:05;;;;;;;;;;;;;;;19.17;42.30;95922.97;6116506;19;1128;-71
2022/11/01 09:34:10;;;;;;;;;;;;;;;19.17;42.59;95917.66;6092048;19;1401;-73
2022/11/01 09:36:14;;;;;;;;;;;;;;;19.18;42.29;95923.81;6117139;19;1006;-73
2022/11/01 09:38:17;;;;;;;;;;;;;;;19.18;42.33;95914.00;6116408;19;1053;-73
2022/11/01 09:40:20;;;;;;;;;;;;;;;19.19;42.58;95917.47;6116778;19;1036;-71
2022/11/01 09:42:31;;;;;;;;;;;;;;;19.19;42.28;95912.16;6116137;19;1845;-71
2022/11/01 09:44:36;;;;;;;;;;;;;;;19.18;41.97;95907.84;6116991;19;1085;-70
2022/11/01 09:46:44;;;;;;;;;;;;;;;19.18;41.93;95910.50;6094318;19;1564;-70
2022/11/01 09:48:48;;;;;;;;;;;;;;;19.19;42.46;95906.81;6116005;19;1319;-71
2022/11/01 09:50:52;;;;;;;;;;;;;;;19.20;42.60;95895.16;6116306;19;1287;-70
2022/11/01 09:52:59;;;;;;;;;;;;;;;19.21;42.14;95899.47;6115941;19;1034;-73
2022/11/01 09:55:02;;;;;;;;;;;;;;;19.21;42.33;95897.66;6116841;19;1026;-73
2022/11/01 09:57:12;;;;;;;;;;;;;;;19.21;42.35;95894.16;6090723;19;1472;-72
2022/11/01 09:59:27;;;;;;;;;;;;;;;19.22;42.31;95888.63;6123056;19;1169;-77
2022/11/01 10:01:40;;;;;;;;;;;;;;;19.23;42.34;95889.44;6120964;19;1486;-71
2022/11/01 10:03:51;;;;;;;;;;;;;;;19.24;42.60;95890.31;6121003;19;1855;-72
2022/11/01 10:06:00;;;;;;;;;;;;;;;19.25;42.46;95886.63;6123181;19;1036;-72
2022/11/01 10:08:09;;;;;;;;;;;;;;;19.25;42.25;95884.78;6104321;19;1461;-70
2022/11/01 10:10:31;;;;;;;;;;;;;;;19.26;42.37;95881.09;6122229;19;1018;-73
2022/11/01 10:12:41;;;;;;;;;;;;;;;19.26;42.39;95886.41;6124197;19;1711;-72
2022/11/01 10:14:53;;;;;;;;;;;;;;;19.27;42.69;95882.75;6125805;19;1049;-72
2022/11/01 10:17:01;;;;;;;;;;;;;;;19.27;42.58;95874.78;6122641;19;1159;-72
2022/11/01 10:19:06;;;;;;;;;;;;;;;19.27;42.20;95872.09;6109699;19;1446;-71
2022/11/01 10:21:13;;;;;;;;;;;;;;;19.23;41.89;95878.78;6109213;19;1354;-71
2022/11/01 10:23:18;;;;;;;;;;;;;;;19.20;41.73;95871.16;6120044;19;1845;-71
2022/11/01 10:25:22;;;;;;;;;;;;;;;19.16;41.60;95870.72;6121495;19;1292;-71
2022/11/01 10:27:28;;;;;;;;;;;;;;;19.22;42.05;95871.81;6122447;19;950;-71
2022/11/01 10:29:35;;;;;;;;;;;;;;;19.24;42.04;95861.81;6120767;19;1053;-71
2022/11/01 10:31:45;;;;;;;;;;;;;;;19.26;42.28;95862.44;6096786;19;1732;-71
2022/11/01 10:33:51;;;;;;;;;;;;;;;19.24;41.68;95859.16;6121952;19;1124;-71
2022/11/01 10:35:57;;;;;;;;;;;;;;;19.22;41.60;95854.00;6122131;19;1148;-70
2022/11/01 10:38:04;;;;;;;;;;;;;;;19.27;41.94;95860.63;6121777;19;1017;-69
2022/11/01 10:40:12;;;;;;;;;;;;;;;19.27;42.19;95850.78;6122016;19;1040;-71
2022/11/01 10:42:17;;;;;;;;;;;;;;;19.28;41.47;95854.28;6095420;19;1845;-73
2022/11/01 10:44:26;;;;;;;;;;;;;;;19.34;42.04;95848.22;6123892;19;1398;-69
2022/11/01 10:46:32;;;;;;;;;;;;;;;19.35;42.28;95847.19;6124583;19;1174;-72
2022/11/01 10:48:39;;;;;;;;;;;;;;;19.36;42.11;95844.34;6125023;19;1190;-71
2022/11/01 10:50:44;;;;;;;;;;;;;;;19.36;42.02;95839.03;6125090;19;1217;-72
2022/11/01 10:52:51;;;;;;;;;;;;;;;19.38;42.29;95842.34;6116978;19;1361;-69
2022/11/01 10:54:55;;;;;;;;;;;;;;;19.39;42.20;95844.00;6108515;19;1421;-71
2022/11/01 10:57:01;;;;;;;;;;;;;;;19.41;42.19;95835.81;6124345;19;1272;-71
2022/11/01 10:59:06;;;;;;;;;;;;;;;19.41;42.50;95839.31;6124564;19;1254;-71
2022/11/01 11:01:13;;;;;;;;;;;;;;;19.42;42.35;95843.63;6121785;19;1412;-70
2022/11/01 11:03:19;;;;;;;;;;;;;;;19.43;42.38;95828.44;6123173;19;1841;-70
2022/11/01 11:05:27;;;;;;;;;;;;;;;19.44;42.53;95830.94;6097504;19;1648;-70
2022/11/01 11:07:32;;;;;;;;;;;;;;;19.43;42.52;95821.31;6123260;19;1233;-71
2022/11/01 11:09:37;;;;;;;;;;;;;;;19.44;42.58;95816.78;6121702;19;1190;-70
2022/11/01 11:11:43;;;;;;;;;;;;;;;19.45;42.98;95819.25;6124034;19;1256;-69